createdAt,value
2023-05-10T00:00:04.178Z,7.900000
2023-05-10T00:01:01.101Z,7.900000
2023-05-10T00:02:01.258Z,7.900000
2023-05-10T00:03:01.203Z,9.000000
2023-05-10T00:04:01.222Z,9.000000
2023-05-10T00:05:04.099Z,9.000000
2023-05-10T00:06:01.189Z,9.000000
2023-05-10T00:07:01.132Z,9.000000
2023-05-10T00:08:01.347Z,6.500000
2023-05-10T00:09:01.158Z,6.500000
2023-05-10T00:10:04.379Z,6.500000
2023-05-10T00:11:01.139Z,6.500000
2023-05-10T00:12:01.234Z,6.500000
2023-05-10T00:13:01.170Z,6.500000
2023-05-10T00:14:00.245Z,0.000000
2023-05-10T00:15:02.642Z,0.000000
2023-05-10T00:16:00.301Z,4.600000
2023-05-10T00:17:00.240Z,4.600000
2023-05-10T00:18:00.316Z,5.100000
2023-05-10T00:19:00.196Z,5.100000
2023-05-10T00:20:04.411Z,5.100000
2023-05-10T00:21:00.208Z,5.100000
2023-05-10T00:22:00.267Z,5.100000
2023-05-10T00:23:00.207Z,0.000000
2023-05-10T00:24:00.274Z,0.000000
2023-05-10T00:25:02.670Z,0.000000
2023-05-10T00:26:00.332Z,0.000000
2023-05-10T00:27:00.263Z,0.000000
2023-05-10T00:28:00.310Z,5.800000
2023-05-10T00:29:00.222Z,5.800000
2023-05-10T00:30:03.421Z,5.800000
2023-05-10T00:31:00.283Z,6.800000
2023-05-10T00:32:00.407Z,6.800000
2023-05-10T00:33:00.312Z,6.800000
2023-05-10T00:34:00.348Z,4.300000
2023-05-10T00:35:02.931Z,4.300000
2023-05-10T00:36:00.377Z,6.100000
2023-05-10T00:37:00.305Z,6.100000
2023-05-10T00:38:00.394Z,6.100000
2023-05-10T00:39:00.328Z,5.700000
2023-05-10T00:40:03.323Z,5.700000
2023-05-10T00:41:00.318Z,4.700000
2023-05-10T00:42:00.432Z,4.700000
2023-05-10T00:43:00.356Z,0.000000
2023-05-10T00:44:00.443Z,0.000000
2023-05-10T00:45:03.556Z,0.000000
2023-05-10T00:46:00.451Z,0.000000
2023-05-10T00:47:00.364Z,0.000000
2023-05-10T00:48:00.475Z,0.000000
2023-05-10T00:49:00.361Z,6.100000
2023-05-10T00:50:03.200Z,7.300000
2023-05-10T00:51:00.398Z,7.300000
2023-05-10T00:52:00.483Z,7.300000
2023-05-10T00:53:00.406Z,7.300000
2023-05-10T00:54:00.470Z,7.300000
2023-05-10T00:55:03.004Z,7.300000
2023-05-10T00:56:00.506Z,0.000000
2023-05-10T00:57:00.451Z,0.000000
2023-05-10T00:58:00.488Z,0.000000
2023-05-10T00:59:00.425Z,0.000000
2023-05-10T01:00:03.059Z,0.000000
2023-05-10T01:01:00.484Z,4.000000
2023-05-10T01:02:00.565Z,4.000000
2023-05-10T01:03:00.602Z,4.000000
2023-05-10T01:04:00.545Z,0.000000
2023-05-10T01:05:03.148Z,0.000000
2023-05-10T01:06:00.574Z,0.000000
2023-05-10T01:07:00.501Z,0.000000
2023-05-10T01:08:00.610Z,0.000000
2023-05-10T01:09:00.516Z,0.000000
2023-05-10T01:10:03.403Z,0.000000
2023-05-10T01:11:00.533Z,0.000000
2023-05-10T01:12:00.657Z,0.000000
2023-05-10T01:13:00.589Z,0.000000
2023-05-10T01:14:00.647Z,0.000000
2023-05-10T01:15:03.050Z,0.000000
2023-05-10T01:16:00.699Z,0.000000
2023-05-10T01:17:00.539Z,0.000000
2023-05-10T01:18:00.663Z,4.200000
2023-05-10T01:19:00.598Z,4.200000
2023-05-10T01:20:04.430Z,4.200000
2023-05-10T01:21:00.587Z,0.000000
2023-05-10T01:22:00.636Z,0.000000
2023-05-10T01:23:00.593Z,0.000000
2023-05-10T01:24:00.685Z,6.600000
2023-05-10T01:25:03.306Z,6.600000
2023-05-10T01:26:00.677Z,7.900000
2023-05-10T01:27:00.615Z,7.900000
2023-05-10T01:28:00.653Z,7.900000
2023-05-10T01:29:00.604Z,7.900000
2023-05-10T01:30:14.195Z,7.900000
2023-05-10T01:31:00.667Z,7.900000
2023-05-10T01:32:00.702Z,5.800000
2023-05-10T01:33:00.678Z,5.800000
2023-05-10T01:34:00.708Z,5.700000
2023-05-10T01:35:02.941Z,5.700000
2023-05-10T01:36:00.742Z,0.000000
2023-05-10T01:37:00.680Z,0.000000
2023-05-10T01:38:00.761Z,0.000000
2023-05-10T01:39:00.676Z,4.400000
2023-05-10T01:40:04.265Z,4.400000
2023-05-10T01:41:00.700Z,7.100000
2023-05-10T01:42:00.776Z,7.100000
2023-05-10T01:43:00.718Z,7.100000
2023-05-10T01:44:00.797Z,7.100000
2023-05-10T01:45:03.079Z,7.100000
2023-05-10T01:46:00.848Z,6.900000
2023-05-10T01:47:00.807Z,6.900000
2023-05-10T01:48:00.837Z,6.900000
2023-05-10T01:49:00.731Z,6.900000
2023-05-10T01:50:04.298Z,6.900000
2023-05-10T01:51:00.757Z,6.900000
2023-05-10T01:52:00.809Z,0.000000
2023-05-10T01:53:00.746Z,0.000000
2023-05-10T01:54:00.860Z,0.000000
2023-05-10T01:55:03.410Z,0.000000
2023-05-10T01:56:00.871Z,0.000000
2023-05-10T01:57:00.780Z,7.200000
2023-05-10T01:58:00.846Z,7.200000
2023-05-10T01:59:00.793Z,7.200000
2023-05-10T02:00:04.104Z,7.200000
2023-05-10T02:01:00.830Z,6.100000
2023-05-10T02:02:01.137Z,6.100000
2023-05-10T02:03:00.844Z,6.100000
2023-05-10T02:04:00.999Z,4.600000
2023-05-10T02:05:03.264Z,4.600000
2023-05-10T02:06:01.998Z,4.600000
2023-05-10T02:07:00.810Z,0.000000
2023-05-10T02:08:01.036Z,0.000000
2023-05-10T02:09:00.846Z,7.000000
2023-05-10T02:10:05.373Z,7.000000
2023-05-10T02:11:00.874Z,8.000000
2023-05-10T02:12:00.936Z,8.000000
2023-05-10T02:13:00.881Z,8.000000
2023-05-10T02:14:00.963Z,8.900000
2023-05-10T02:15:03.398Z,8.900000
2023-05-10T02:16:00.957Z,8.900000
2023-05-10T02:17:00.937Z,8.800000
2023-05-10T02:18:01.067Z,8.800000
2023-05-10T02:19:00.899Z,8.800000
2023-05-10T02:20:03.878Z,8.800000
2023-05-10T02:21:00.912Z,8.800000
2023-05-10T02:22:00.972Z,8.800000
2023-05-10T02:23:00.918Z,8.800000
2023-05-10T02:24:01.050Z,8.800000
2023-05-10T02:25:03.278Z,8.800000
2023-05-10T02:26:01.032Z,8.800000
2023-05-10T02:27:00.976Z,8.800000
2023-05-10T02:28:01.051Z,6.700000
2023-05-10T02:29:00.972Z,6.700000
2023-05-10T02:30:04.493Z,5.400000
2023-05-10T02:31:00.991Z,5.400000
2023-05-10T02:32:01.105Z,5.400000
2023-05-10T02:33:01.100Z,5.400000
2023-05-10T02:34:01.095Z,5.400000
2023-05-10T02:35:04.264Z,0.000000
2023-05-10T02:36:01.090Z,0.000000
2023-05-10T02:37:01.041Z,4.900000
2023-05-10T02:38:01.131Z,4.900000
2023-05-10T02:39:01.061Z,4.900000
2023-05-10T02:40:03.668Z,5.200000
2023-05-10T02:41:01.062Z,5.200000
2023-05-10T02:42:01.168Z,7.800000
2023-05-10T02:43:01.083Z,7.800000
2023-05-10T02:44:01.157Z,7.800000
2023-05-10T02:45:05.350Z,7.800000
2023-05-10T02:46:01.178Z,7.800000
2023-05-10T02:47:01.098Z,7.800000
2023-05-10T02:48:01.225Z,7.700000
2023-05-10T02:49:01.125Z,7.700000
2023-05-10T02:50:03.755Z,7.700000
2023-05-10T02:51:01.154Z,7.700000
2023-05-10T02:52:01.205Z,7.700000
2023-05-10T02:53:01.135Z,7.700000
2023-05-10T02:54:01.241Z,8.500000
2023-05-10T02:55:03.737Z,8.500000
2023-05-10T02:56:01.233Z,8.500000
2023-05-10T02:57:01.190Z,8.500000
2023-05-10T02:58:01.259Z,8.500000
2023-05-10T02:59:00.237Z,8.500000
2023-05-10T03:00:02.995Z,8.400000
2023-05-10T03:01:00.226Z,8.400000
2023-05-10T03:02:00.298Z,7.000000
2023-05-10T03:03:00.274Z,7.000000
2023-05-10T03:04:00.266Z,4.100000
2023-05-10T03:05:02.951Z,4.100000
2023-05-10T03:06:00.307Z,4.100000
2023-05-10T03:07:00.321Z,4.000000
2023-05-10T03:08:00.312Z,4.000000
2023-05-10T03:09:00.266Z,4.000000
2023-05-10T03:10:03.023Z,0.000000
2023-05-10T03:11:00.274Z,0.000000
2023-05-10T03:12:00.359Z,6.400000
2023-05-10T03:13:00.322Z,6.400000
2023-05-10T03:14:00.351Z,6.400000
2023-05-10T03:15:02.659Z,6.400000
2023-05-10T03:16:00.398Z,6.400000
2023-05-10T03:17:00.280Z,6.400000
2023-05-10T03:18:00.528Z,4.300000
2023-05-10T03:19:00.315Z,4.300000
2023-05-10T03:20:04.476Z,6.300000
2023-05-10T03:21:00.343Z,6.300000
2023-05-10T03:22:00.828Z,6.300000
2023-05-10T03:23:00.323Z,6.500000
2023-05-10T03:24:00.432Z,6.500000
2023-05-10T03:25:02.725Z,4.800000
2023-05-10T03:26:00.450Z,4.800000
2023-05-10T03:27:00.356Z,5.500000
2023-05-10T03:28:00.428Z,5.500000
2023-05-10T03:29:00.334Z,5.500000
2023-05-10T03:30:05.636Z,6.300000
2023-05-10T03:31:00.404Z,6.300000
2023-05-10T03:32:00.506Z,6.300000
2023-05-10T03:33:00.431Z,5.000000
2023-05-10T03:34:00.476Z,5.000000
2023-05-10T03:35:02.988Z,5.000000
2023-05-10T03:36:00.463Z,5.000000
2023-05-10T03:37:00.384Z,5.000000
2023-05-10T03:38:00.524Z,4.800000
2023-05-10T03:39:00.444Z,4.800000
2023-05-10T03:40:03.542Z,4.800000
2023-05-10T03:41:00.429Z,4.800000
2023-05-10T03:42:00.535Z,4.800000
2023-05-10T03:43:00.465Z,0.000000
2023-05-10T03:44:00.556Z,0.000000
2023-05-10T03:45:02.910Z,0.000000
2023-05-10T03:46:00.557Z,0.000000
2023-05-10T03:47:00.502Z,0.000000
2023-05-10T03:48:00.661Z,6.200000
2023-05-10T03:49:00.476Z,6.200000
2023-05-10T03:50:03.613Z,6.200000
2023-05-10T03:51:00.524Z,6.200000
2023-05-10T03:52:01.663Z,6.200000
2023-05-10T03:53:00.519Z,0.000000
2023-05-10T03:54:00.630Z,0.000000
2023-05-10T03:55:03.106Z,0.000000
2023-05-10T03:56:00.625Z,0.000000
2023-05-10T03:57:00.573Z,0.000000
2023-05-10T03:58:00.631Z,0.000000
2023-05-10T03:59:00.570Z,0.000000
2023-05-10T04:00:03.879Z,0.000000
2023-05-10T04:01:00.578Z,0.000000
2023-05-10T04:02:00.692Z,0.000000
2023-05-10T04:03:00.645Z,0.000000
2023-05-10T04:04:00.768Z,0.000000
2023-05-10T04:05:03.029Z,0.000000
2023-05-10T04:06:00.743Z,0.000000
2023-05-10T04:07:00.604Z,0.000000
2023-05-10T04:08:00.701Z,0.000000
2023-05-10T04:09:00.644Z,0.000000
2023-05-10T04:10:03.824Z,0.000000
2023-05-10T04:11:00.627Z,0.000000
2023-05-10T04:12:00.711Z,0.000000
2023-05-10T04:13:00.697Z,0.000000
2023-05-10T04:14:00.774Z,0.000000
2023-05-10T04:15:03.198Z,0.000000
2023-05-10T04:16:00.750Z,0.000000
2023-05-10T04:17:00.749Z,0.000000
2023-05-10T04:18:01.996Z,0.000000
2023-05-10T04:19:00.715Z,0.000000
2023-05-10T04:20:03.564Z,0.000000
2023-05-10T04:21:00.724Z,0.000000
2023-05-10T04:22:00.802Z,0.000000
2023-05-10T04:23:00.739Z,0.000000
2023-05-10T04:24:00.810Z,0.000000
2023-05-10T04:25:04.567Z,0.000000
2023-05-10T04:26:00.816Z,0.000000
2023-05-10T04:27:00.769Z,0.000000
2023-05-10T04:28:00.850Z,0.000000
2023-05-10T04:29:00.750Z,0.000000
2023-05-10T04:30:03.882Z,0.000000
2023-05-10T04:31:00.847Z,0.000000
2023-05-10T04:32:00.863Z,0.000000
2023-05-10T04:33:00.877Z,0.000000
2023-05-10T04:34:00.866Z,0.000000
2023-05-10T04:35:03.937Z,0.000000
2023-05-10T04:36:00.888Z,0.000000
2023-05-10T04:37:00.820Z,0.000000
2023-05-10T04:38:00.892Z,0.000000
2023-05-10T04:39:00.829Z,0.000000
2023-05-10T04:40:03.573Z,0.000000
2023-05-10T04:41:00.834Z,0.000000
2023-05-10T04:42:00.947Z,0.000000
2023-05-10T04:43:00.849Z,0.000000
2023-05-10T04:44:00.918Z,0.000000
2023-05-10T04:45:03.946Z,0.000000
2023-05-10T04:46:00.959Z,0.000000
2023-05-10T04:47:00.855Z,0.000000
2023-05-10T04:48:04.111Z,0.000000
2023-05-10T04:49:00.851Z,0.000000
2023-05-10T04:50:03.867Z,0.000000
2023-05-10T04:51:00.932Z,0.000000
2023-05-10T04:52:00.984Z,0.000000
2023-05-10T04:53:00.895Z,0.000000
2023-05-10T04:54:06.662Z,0.000000
2023-05-10T04:55:04.076Z,0.000000
2023-05-10T04:56:01.001Z,0.000000
2023-05-10T04:57:00.953Z,0.000000
2023-05-10T04:58:01.011Z,0.000000
2023-05-10T04:59:00.949Z,0.000000
2023-05-10T05:00:04.195Z,0.000000
2023-05-10T05:01:01.028Z,0.000000
2023-05-10T05:02:01.178Z,0.000000
2023-05-10T05:03:01.168Z,0.000000
2023-05-10T05:04:01.187Z,0.000000
2023-05-10T05:05:03.642Z,0.000000
2023-05-10T05:06:01.151Z,0.000000
2023-05-10T05:07:01.047Z,0.000000
2023-05-10T05:08:01.114Z,0.000000
2023-05-10T05:09:01.077Z,0.000000
2023-05-10T05:10:04.522Z,0.000000
2023-05-10T05:11:01.076Z,0.000000
2023-05-10T05:12:01.192Z,4.200000
2023-05-10T05:13:01.111Z,4.200000
2023-05-10T05:14:01.162Z,0.000000
2023-05-10T05:15:03.655Z,0.000000
2023-05-10T05:16:01.224Z,0.000000
2023-05-10T05:17:01.100Z,0.000000
2023-05-10T05:18:01.271Z,0.000000
2023-05-10T05:19:01.108Z,4.000000
2023-05-10T05:20:05.044Z,4.000000
2023-05-10T05:21:01.139Z,4.000000
2023-05-10T05:22:01.205Z,7.000000
2023-05-10T05:23:01.116Z,7.000000
2023-05-10T05:24:01.233Z,7.000000
2023-05-10T05:25:03.690Z,7.000000
2023-05-10T05:26:01.208Z,7.000000
2023-05-10T05:27:01.159Z,4.200000
2023-05-10T05:28:01.283Z,4.200000
2023-05-10T05:29:01.205Z,4.200000
2023-05-10T05:30:03.613Z,0.000000
2023-05-10T05:31:00.183Z,0.000000
2023-05-10T05:32:00.356Z,0.000000
2023-05-10T05:33:00.241Z,0.000000
2023-05-10T05:34:00.265Z,0.000000
2023-05-10T05:35:02.710Z,0.000000
2023-05-10T05:36:00.338Z,0.000000
2023-05-10T05:37:00.203Z,0.000000
2023-05-10T05:38:00.299Z,0.000000
2023-05-10T05:39:00.254Z,0.000000
2023-05-10T05:40:03.344Z,0.000000
2023-05-10T05:41:00.281Z,0.000000
2023-05-10T05:42:00.359Z,0.000000
2023-05-10T05:43:00.261Z,0.000000
2023-05-10T05:44:00.372Z,0.000000
2023-05-10T05:45:03.043Z,4.000000
2023-05-10T05:46:00.355Z,4.000000
2023-05-10T05:47:00.279Z,4.400000
2023-05-10T05:48:00.428Z,4.400000
2023-05-10T05:49:00.297Z,4.400000
2023-05-10T05:50:03.381Z,4.400000
2023-05-10T05:51:00.332Z,4.400000
2023-05-10T05:52:00.386Z,0.000000
2023-05-10T05:53:00.300Z,0.000000
2023-05-10T05:54:00.438Z,0.000000
2023-05-10T05:55:02.768Z,0.000000
2023-05-10T05:56:00.418Z,0.000000
2023-05-10T05:57:01.400Z,0.000000
2023-05-10T05:58:00.416Z,0.000000
2023-05-10T05:59:00.344Z,0.000000
2023-05-10T06:00:04.875Z,0.000000
2023-05-10T06:01:00.379Z,0.000000
2023-05-10T06:02:00.486Z,0.000000
2023-05-10T06:03:00.555Z,0.000000
2023-05-10T06:04:00.602Z,4.700000
2023-05-10T06:05:02.848Z,4.700000
2023-05-10T06:06:00.471Z,4.700000
2023-05-10T06:07:00.429Z,4.700000
2023-05-10T06:08:00.476Z,4.700000
2023-05-10T06:09:00.423Z,4.700000
2023-05-10T06:10:03.472Z,4.000000
2023-05-10T06:11:00.433Z,4.000000
2023-05-10T06:12:00.552Z,4.200000
2023-05-10T06:13:00.463Z,4.200000
2023-05-10T06:14:00.515Z,4.200000
2023-05-10T06:15:04.193Z,4.200000
2023-05-10T06:16:00.531Z,4.200000
2023-05-10T06:17:00.510Z,7.600000
2023-05-10T06:18:00.643Z,7.600000
2023-05-10T06:19:00.472Z,7.600000
2023-05-10T06:20:03.629Z,0.000000
2023-05-10T06:21:00.541Z,0.000000
2023-05-10T06:22:00.603Z,0.000000
2023-05-10T06:23:00.509Z,0.000000
2023-05-10T06:24:00.615Z,0.000000
2023-05-10T06:25:03.283Z,4.000000
2023-05-10T06:26:00.586Z,4.000000
2023-05-10T06:27:00.546Z,4.000000
2023-05-10T06:28:00.588Z,4.000000
2023-05-10T06:29:00.530Z,4.000000
2023-05-10T06:30:12.420Z,0.000000
2023-05-10T06:31:00.636Z,0.000000
2023-05-10T06:32:00.632Z,0.000000
2023-05-10T06:33:00.671Z,4.300000
2023-05-10T06:34:00.658Z,4.300000
2023-05-10T06:35:02.940Z,4.300000
2023-05-10T06:36:00.649Z,4.300000
2023-05-10T06:37:00.589Z,0.000000
2023-05-10T06:38:00.655Z,0.000000
2023-05-10T06:39:00.623Z,0.000000
2023-05-10T06:40:03.883Z,4.000000
2023-05-10T06:41:00.599Z,4.000000
2023-05-10T06:42:01.064Z,4.000000
2023-05-10T06:43:00.674Z,4.000000
2023-05-10T06:44:00.720Z,4.000000
2023-05-10T06:45:03.224Z,6.200000
2023-05-10T06:46:00.734Z,6.200000
2023-05-10T06:47:00.657Z,6.200000
2023-05-10T06:48:00.829Z,6.200000
2023-05-10T06:49:00.655Z,6.200000
2023-05-10T06:50:03.642Z,4.000000
2023-05-10T06:51:00.747Z,4.000000
2023-05-10T06:52:00.755Z,4.000000
2023-05-10T06:53:00.677Z,6.300000
2023-05-10T06:54:00.783Z,6.300000
2023-05-10T06:55:03.109Z,6.300000
2023-05-10T06:56:00.782Z,6.300000
2023-05-10T06:57:01.937Z,6.300000
2023-05-10T06:58:00.785Z,5.600000
2023-05-10T06:59:00.739Z,5.600000
2023-05-10T07:00:03.975Z,5.600000
2023-05-10T07:01:00.826Z,5.600000
2023-05-10T07:02:00.877Z,5.600000
2023-05-10T07:03:00.916Z,4.400000
2023-05-10T07:04:00.853Z,4.400000
2023-05-10T07:05:14.801Z,4.400000
2023-05-10T07:06:00.864Z,4.000000
2023-05-10T07:07:00.786Z,4.000000
2023-05-10T07:08:00.875Z,4.900000
2023-05-10T07:09:00.856Z,4.900000
2023-05-10T07:10:04.985Z,4.900000
2023-05-10T07:11:00.833Z,4.900000
2023-05-10T07:12:00.921Z,4.400000
2023-05-10T07:13:00.917Z,4.400000
2023-05-10T07:14:00.910Z,4.400000
2023-05-10T07:15:03.412Z,5.600000
2023-05-10T07:16:00.925Z,5.600000
2023-05-10T07:17:00.904Z,5.600000
2023-05-10T07:18:01.080Z,6.900000
2023-05-10T07:19:00.890Z,6.900000
2023-05-10T07:20:03.793Z,6.900000
2023-05-10T07:21:01.020Z,6.900000
2023-05-10T07:22:00.965Z,6.900000
2023-05-10T07:23:00.893Z,6.900000
2023-05-10T07:24:01.033Z,6.900000
2023-05-10T07:25:03.470Z,7.300000
2023-05-10T07:26:01.009Z,7.300000
2023-05-10T07:27:00.992Z,7.300000
2023-05-10T07:28:01.026Z,0.000000
2023-05-10T07:29:00.975Z,0.000000
2023-05-10T07:30:04.046Z,4.000000
2023-05-10T07:31:01.048Z,4.000000
2023-05-10T07:32:01.081Z,4.000000
2023-05-10T07:33:01.075Z,9.400000
2023-05-10T07:34:01.073Z,9.400000
2023-05-10T07:35:03.790Z,9.400000
2023-05-10T07:36:01.095Z,9.400000
2023-05-10T07:37:01.011Z,9.400000
2023-05-10T07:38:01.083Z,9.400000
2023-05-10T07:39:01.052Z,4.200000
2023-05-10T07:40:04.158Z,4.200000
2023-05-10T07:41:01.046Z,7.700000
2023-05-10T07:42:01.123Z,7.700000
2023-05-10T07:43:01.052Z,5.600000
2023-05-10T07:44:01.167Z,5.600000
2023-05-10T07:45:03.537Z,5.600000
2023-05-10T07:46:01.225Z,5.600000
2023-05-10T07:47:01.094Z,5.600000
2023-05-10T07:48:01.281Z,5.600000
2023-05-10T07:49:01.179Z,6.300000
2023-05-10T07:50:04.198Z,6.300000
2023-05-10T07:51:01.110Z,6.800000
2023-05-10T07:52:01.192Z,6.800000
2023-05-10T07:53:01.117Z,6.800000
2023-05-10T07:54:01.197Z,6.800000
2023-05-10T07:55:03.626Z,6.800000
2023-05-10T07:56:01.224Z,7.800000
2023-05-10T07:57:01.160Z,7.800000
2023-05-10T07:58:02.222Z,7.800000
2023-05-10T07:59:01.168Z,4.000000
2023-05-10T08:00:04.276Z,4.000000
2023-05-10T08:01:00.153Z,4.000000
2023-05-10T08:02:00.340Z,5.600000
2023-05-10T08:03:00.385Z,5.600000
2023-05-10T08:04:00.341Z,5.600000
2023-05-10T08:05:03.349Z,5.600000
2023-05-10T08:06:00.312Z,5.600000
2023-05-10T08:07:00.202Z,4.600000
2023-05-10T08:08:00.348Z,4.600000
2023-05-10T08:09:00.234Z,4.900000
2023-05-10T08:10:03.218Z,4.900000
2023-05-10T08:11:00.244Z,0.000000
2023-05-10T08:12:00.345Z,0.000000
2023-05-10T08:13:00.246Z,0.000000
2023-05-10T08:14:00.342Z,4.500000
2023-05-10T08:15:02.723Z,4.500000
2023-05-10T08:16:00.388Z,4.500000
2023-05-10T08:17:00.265Z,0.000000
2023-05-10T08:18:00.396Z,0.000000
2023-05-10T08:19:00.330Z,4.700000
2023-05-10T08:20:03.228Z,4.700000
2023-05-10T08:21:00.296Z,4.700000
2023-05-10T08:22:00.373Z,5.600000
2023-05-10T08:23:00.309Z,5.600000
2023-05-10T08:24:00.386Z,0.000000
2023-05-10T08:25:02.894Z,0.000000
2023-05-10T08:26:00.401Z,0.000000
2023-05-10T08:27:00.340Z,0.000000
2023-05-10T08:28:00.387Z,0.000000
2023-05-10T08:29:00.349Z,0.000000
2023-05-10T08:30:03.396Z,0.000000
2023-05-10T08:31:00.473Z,0.000000
2023-05-10T08:32:00.475Z,0.000000
2023-05-10T08:33:00.422Z,0.000000
2023-05-10T08:34:00.458Z,0.000000
2023-05-10T08:35:02.776Z,0.000000
2023-05-10T08:36:00.486Z,0.000000
2023-05-10T08:37:00.377Z,6.200000
2023-05-10T08:38:01.645Z,6.200000
2023-05-10T08:39:00.411Z,6.200000
2023-05-10T08:40:03.387Z,6.200000
2023-05-10T08:41:00.486Z,0.000000
2023-05-10T08:42:00.525Z,0.000000
2023-05-10T08:43:00.413Z,0.000000
2023-05-10T08:44:00.526Z,0.000000
2023-05-10T08:45:02.983Z,0.000000
2023-05-10T08:46:00.508Z,0.000000
2023-05-10T08:47:00.471Z,4.000000
2023-05-10T08:48:00.589Z,4.000000
2023-05-10T08:49:00.454Z,4.500000
2023-05-10T08:50:03.326Z,4.500000
2023-05-10T08:51:00.473Z,4.500000
2023-05-10T08:52:00.531Z,4.400000
2023-05-10T08:53:00.480Z,4.400000
2023-05-10T08:54:00.616Z,5.200000
2023-05-10T08:55:02.843Z,5.200000
2023-05-10T08:56:00.586Z,5.200000
2023-05-10T08:57:00.533Z,5.300000
2023-05-10T08:58:00.548Z,5.300000
2023-05-10T08:59:00.498Z,7.000000
2023-05-10T09:00:04.677Z,7.000000
2023-05-10T09:01:00.593Z,4.100000
2023-05-10T09:02:02.048Z,4.100000
2023-05-10T09:03:00.591Z,4.100000
2023-05-10T09:04:00.697Z,4.000000
2023-05-10T09:05:03.121Z,4.000000
2023-05-10T09:06:01.051Z,0.000000
2023-05-10T09:07:00.571Z,0.000000
2023-05-10T09:08:01.596Z,0.000000
2023-05-10T09:09:00.589Z,0.000000
2023-05-10T09:10:06.120Z,0.000000
2023-05-10T09:11:00.598Z,0.000000
2023-05-10T09:12:00.719Z,0.000000
2023-05-10T09:13:00.612Z,0.000000
2023-05-10T09:14:01.004Z,4.700000
2023-05-10T09:15:03.289Z,4.700000
2023-05-10T09:16:09.921Z,4.700000
2023-05-10T09:17:00.676Z,5.100000
2023-05-10T09:18:00.852Z,5.100000
2023-05-10T09:19:00.699Z,5.100000
2023-05-10T09:20:04.145Z,5.600000
2023-05-10T09:21:00.694Z,5.600000
2023-05-10T09:22:00.742Z,4.900000
2023-05-10T09:23:00.683Z,4.900000
2023-05-10T09:24:00.751Z,4.900000
2023-05-10T09:25:03.363Z,5.100000
2023-05-10T09:26:00.819Z,5.100000
2023-05-10T09:27:00.684Z,4.400000
2023-05-10T09:28:00.754Z,4.400000
2023-05-10T09:29:00.695Z,4.400000
2023-05-10T09:30:03.671Z,5.400000
2023-05-10T09:31:00.753Z,5.400000
2023-05-10T09:32:00.805Z,5.400000
2023-05-10T09:33:00.953Z,5.400000
2023-05-10T09:34:00.818Z,5.400000
2023-05-10T09:35:04.830Z,5.900000
2023-05-10T09:36:00.822Z,5.900000
2023-05-10T09:37:00.752Z,5.900000
2023-05-10T09:38:00.830Z,5.900000
2023-05-10T09:39:00.785Z,5.900000
2023-05-10T09:40:04.111Z,6.800000
2023-05-10T09:41:00.778Z,6.800000
2023-05-10T09:42:00.894Z,6.800000
2023-05-10T09:43:00.793Z,6.800000
2023-05-10T09:44:00.872Z,6.800000
2023-05-10T09:45:03.281Z,4.600000
2023-05-10T09:46:00.917Z,4.600000
2023-05-10T09:47:00.823Z,8.100000
2023-05-10T09:48:00.907Z,8.100000
2023-05-10T09:49:00.806Z,8.100000
2023-05-10T09:50:04.007Z,8.100000
2023-05-10T09:51:00.845Z,8.100000
2023-05-10T09:52:00.899Z,7.200000
2023-05-10T09:53:00.867Z,7.200000
2023-05-10T09:54:00.919Z,7.200000
2023-05-10T09:55:04.200Z,8.500000
2023-05-10T09:56:00.944Z,8.500000
2023-05-10T09:57:00.867Z,8.500000
2023-05-10T09:58:00.989Z,8.500000
2023-05-10T09:59:00.912Z,8.500000
2023-05-10T10:00:03.801Z,0.000000
2023-05-10T10:01:00.946Z,0.000000
2023-05-10T10:02:01.135Z,4.400000
2023-05-10T10:03:01.044Z,4.400000
2023-05-10T10:04:01.018Z,4.400000
2023-05-10T10:05:03.637Z,0.000000
2023-05-10T10:06:01.120Z,0.000000
2023-05-10T10:07:00.971Z,0.000000
2023-05-10T10:08:01.034Z,0.000000
2023-05-10T10:09:00.992Z,0.000000
2023-05-10T10:10:04.217Z,0.000000
2023-05-10T10:11:01.013Z,0.000000
2023-05-10T10:12:01.114Z,0.000000
2023-05-10T10:13:01.051Z,0.000000
2023-05-10T10:14:01.106Z,0.000000
2023-05-10T10:15:03.610Z,0.000000
2023-05-10T10:16:01.136Z,0.000000
2023-05-10T10:17:08.038Z,0.000000
2023-05-10T10:18:01.226Z,0.000000
2023-05-10T10:19:01.140Z,0.000000
2023-05-10T10:20:05.250Z,7.500000
2023-05-10T10:21:01.137Z,7.500000
2023-05-10T10:22:01.136Z,7.100000
2023-05-10T10:23:01.059Z,7.100000
2023-05-10T10:24:01.244Z,7.100000
2023-05-10T10:25:04.332Z,4.500000
2023-05-10T10:26:04.299Z,4.500000
2023-05-10T10:27:01.090Z,4.500000
2023-05-10T10:28:01.166Z,0.000000
2023-05-10T10:29:01.098Z,0.000000
2023-05-10T10:30:04.226Z,6.800000
2023-05-10T10:31:01.153Z,6.800000
2023-05-10T10:32:01.176Z,6.800000
2023-05-10T10:33:02.673Z,6.800000
2023-05-10T10:34:01.213Z,6.800000
2023-05-10T10:35:03.815Z,6.700000
2023-05-10T10:36:01.232Z,6.700000
2023-05-10T10:37:01.147Z,6.700000
2023-05-10T10:38:01.231Z,6.700000
2023-05-10T10:39:01.148Z,6.700000
2023-05-10T10:40:04.315Z,6.700000
2023-05-10T10:41:01.173Z,5.800000
2023-05-10T10:42:01.530Z,5.800000
2023-05-10T10:43:00.217Z,5.800000
2023-05-10T10:44:00.253Z,5.800000
2023-05-10T10:45:02.639Z,5.100000
2023-05-10T10:46:00.280Z,5.100000
2023-05-10T10:47:00.410Z,5.100000
2023-05-10T10:48:00.330Z,8.100000
2023-05-10T10:49:00.198Z,8.100000
2023-05-10T10:50:05.459Z,8.100000
2023-05-10T10:51:00.250Z,4.000000
2023-05-10T10:52:00.317Z,4.000000
2023-05-10T10:53:00.396Z,6.000000
2023-05-10T10:54:00.353Z,6.000000
2023-05-10T10:55:02.992Z,6.000000
2023-05-10T10:56:00.332Z,6.000000
2023-05-10T10:57:00.296Z,6.000000
2023-05-10T10:58:00.335Z,4.900000
2023-05-10T10:59:00.278Z,4.900000
2023-05-10T11:00:03.465Z,4.900000
2023-05-10T11:01:00.329Z,7.000000
2023-05-10T11:02:00.412Z,7.000000
2023-05-10T11:03:00.331Z,7.000000
2023-05-10T11:04:00.416Z,5.200000
2023-05-10T11:05:03.177Z,5.200000
2023-05-10T11:06:00.615Z,6.300000
2023-05-10T11:07:00.317Z,6.300000
2023-05-10T11:08:00.399Z,6.300000
2023-05-10T11:09:00.366Z,6.300000
2023-05-10T11:10:03.564Z,6.300000
2023-05-10T11:11:00.372Z,6.300000
2023-05-10T11:12:00.470Z,6.300000
2023-05-10T11:13:00.352Z,6.300000
2023-05-10T11:14:00.437Z,6.800000
2023-05-10T11:15:02.912Z,6.800000
2023-05-10T11:16:00.468Z,6.800000
2023-05-10T11:17:00.457Z,6.800000
2023-05-10T11:18:00.567Z,6.800000
2023-05-10T11:19:00.471Z,6.800000
2023-05-10T11:20:03.561Z,6.800000
2023-05-10T11:21:00.463Z,5.000000
2023-05-10T11:22:00.494Z,5.000000
2023-05-10T11:23:00.419Z,5.000000
2023-05-10T11:24:00.588Z,5.800000
2023-05-10T11:25:02.902Z,5.800000
2023-05-10T11:26:00.501Z,5.800000
2023-05-10T11:27:00.479Z,5.800000
2023-05-10T11:28:00.534Z,5.800000
2023-05-10T11:29:00.462Z,0.000000
2023-05-10T11:30:05.072Z,0.000000
2023-05-10T11:31:00.500Z,5.200000
2023-05-10T11:32:07.733Z,5.200000
2023-05-10T11:33:00.550Z,5.200000
2023-05-10T11:34:00.576Z,0.000000
2023-05-10T11:35:02.886Z,0.000000
2023-05-10T11:36:00.744Z,0.000000
2023-05-10T11:37:00.504Z,0.000000
2023-05-10T11:38:00.598Z,0.000000
2023-05-10T11:39:00.529Z,0.000000
2023-05-10T11:40:03.626Z,0.000000
2023-05-10T11:41:00.524Z,0.000000
2023-05-10T11:42:00.662Z,0.000000
2023-05-10T11:43:00.563Z,0.000000
2023-05-10T11:44:00.625Z,0.000000